• Join FlightAware (Why Join?)
  • Login
  • US Flag GB Flag 
23:43 EDT


 

Airport Tracker/Info


-or-


 

Live Flight TrackerFlight Track Log ✈ SWA268 ✈ 10-Apr-2013 ✈ KLAS - KABQ

Flight Track Log - Related Links

Times and Time Zones

All times are in EDT time to prevent confusion due to time zone crossing. See the SWA268 flight status page for this flight to view local times or setup timezone preferences in your user account.

Time Position Orientation Groundspeed Altitude Reporting Facility
EDT Latitude Longitude Course Direction KTS MPH feet Rate Location/Type
13:45 36.0747 -115.0331 91° East 226 260 5,500  Level Los Angeles Center
13:46 36.0753 -114.9431 90° East 249 287 7,100 2,160 Climbing Los Angeles Center
13:47 36.0606 -114.8467 101° East 278 320 10,000 2,580 Climbing Los Angeles Center
13:48 36.0453 -114.7406 100° East 310 357 12,500 3,060 Climbing Los Angeles Center
13:49 36.0281 -114.6203 100° East 349 402 16,400 3,120 Climbing Los Angeles Center
13:50 36.0111 -114.4983 100° East 359 413 19,000 2,820 Climbing Los Angeles Center
13:51 35.9867 -114.3358 100° East 401 461 22,300 2,940 Climbing Los Angeles Center
13:52 35.9664 -114.1942 100° East 416 479 25,100 2,400 Climbing Los Angeles Center
13:53 35.9453 -114.0483 100° East 426 490 27,400 2,160 Climbing Los Angeles Center
13:54 35.9231 -113.9006 100° East 435 501 29,600 1,800 Climbing Los Angeles Center
13:55 35.8989 -113.7494 101° East 445 512 31,600 2,220 Climbing Los Angeles Center
13:56 35.8689 -113.5603 101° East 442 509 34,700 1,980 Climbing Los Angeles Center
13:57 35.8461 -113.4133 101° East 438 504 35,700 1,320 Climbing Los Angeles Center
13:58 35.8231 -113.2675 101° East 435 501 37,500 1,260 Climbing Los Angeles Center
13:59 35.7944 -113.0931 101° East 433 498 38,400 720 Climbing Los Angeles Center
14:00 35.7692 -112.9397 101° East 451 519 39,000 240 Climbing Los Angeles Center
14:01 35.7442 -112.7858 101° East 456 525 39,000  Level Los Angeles Center
14:03 35.7189 -112.6336 102° East 454 522 39,000  Level Los Angeles Center
14:04 35.6933 -112.4808 102° East 454 522 39,000  Level Los Angeles Center
14:05 35.6617 -112.2975 102° East 456 525 39,000  Level Los Angeles Center
14:06 35.6353 -112.1464 102° East 454 522 39,000  Level Los Angeles Center
14:06 35.6194 -112.0569 102° East 453 521 39,000  Level Albuquerque Center
14:07 35.5894 -111.8767 102° East 453 521 39,000  Level Albuquerque Center
14:08 35.5872 -111.7286 91° East 440 506 39,000  Level Albuquerque Center
14:10 35.5828 -111.5811 92° East 435 501 39,000  Level Albuquerque Center
14:11 35.5783 -111.4336 92° East 435 501 39,000  Level Albuquerque Center
14:12 35.5736 -111.2603 92° East 443 510 39,000  Level Albuquerque Center
14:13 35.5694 -111.1119 92° East 450 518 39,000  Level Albuquerque Center
14:14 35.5622 -110.9397 93° East 452 520 39,000  Level Albuquerque Center
14:15 35.5569 -110.7931 92° East 451 519 39,000  Level Albuquerque Center
14:16 35.5514 -110.6197 92° East 454 522 39,000  Level Albuquerque Center
14:17 35.5472 -110.4747 92° East 449 517 39,000  Level Albuquerque Center
14:18 35.5394 -110.3033 93° East 450 518 39,000  Level Albuquerque Center
14:19 35.5339 -110.1572 93° East 449 517 39,000  Level Albuquerque Center
14:20 35.5281 -109.9869 92° East 448 516 39,000  Level Albuquerque Center
14:21 35.5219 -109.8425 93° East 445 512 39,000 -180 Level Albuquerque Center
14:22 35.5158 -109.6706 92° East 449 517 38,700 -600 Descending Albuquerque Center
14:23 35.5083 -109.5242 94° East 450 518 37,800 -1,020 Descending Albuquerque Center
14:24 35.5006 -109.3514 93° East 454 522 36,700 -1,260 Descending Albuquerque Center
14:25 35.4939 -109.2067 93° East 449 517 35,200 -840 Descending Albuquerque Center
14:26 35.4867 -109.0669 94° East 437 503 35,000 -120 Descending Albuquerque Center
14:27 35.4789 -108.9053 93° East 429 494 35,000  Level Albuquerque Center
14:28 35.4797 -108.7647 90° East 431 496 35,000 -480 Level Albuquerque Center
14:29 35.4842 -108.5994 88° East 435 501 34,100 -900 Descending Albuquerque Center
14:30 35.4861 -108.4583 89° East 435 501 33,200 -1,440 Descending Albuquerque Center
14:31 35.4867 -108.2953 90° East 430 495 31,100 -2,040 Descending Albuquerque Center
14:32 35.4756 -108.1617 96° East 418 481 29,000 -2,160 Descending Albuquerque Center
14:33 35.4656 -108.0119 95° East 401 461 26,700 -2,100 Descending Albuquerque Center
14:34 35.4572 -107.8819 94° East 399 459 24,700 -2,100 Descending Albuquerque Center
14:35 35.4478 -107.7369 95° East 387 445 22,400 -2,100 Descending Albuquerque Center
14:36 35.4392 -107.6158 95° East 377 434 20,500 -2,040 Descending Albuquerque Center
14:37 35.4344 -107.5350 94° East 381 438 19,200 -2,280 Descending Albuquerque Center
14:37 35.4297 -107.4739 95° East 375 432 18,200 -2,040 Descending Albuquerque Center
14:38 35.4264 -107.4094 94° East 369 425 17,200 -1,860 Descending Albuquerque Center
14:38 35.4200 -107.3561 98° East 368 423 16,300 -1,980 Descending Albuquerque Center
14:39 35.3886 -107.2992 124° Southeast 357 411 15,200 -1,380 Descending Albuquerque Center
14:39 35.3681 -107.2597 123° Southeast 358 412 14,900 -1,200 Descending Albuquerque Center
14:40 35.3317 -107.1886 122° Southeast 333 383 13,900 -1,380 Descending Albuquerque Center
14:40 35.3203 -107.1622 118° Southeast 338 389 13,500 -1,560 Descending Albuquerque Center
14:41 35.2925 -107.1075 122° Southeast 325 374 12,500 -1,560 Descending Albuquerque Center
14:42 35.2675 -107.0747 133° Southeast 324 373 11,900 -1,620 Descending Albuquerque Center
14:42 35.2236 -107.0289 140° Southeast 314 361 10,900 -1,800 Descending Albuquerque Center
14:43 35.1906 -106.9886 135° Southeast 314 361 10,100 -1,200 Descending Albuquerque Center
14:43 35.1572 -106.9522 138° Southeast 301 346 9,600 -900 Descending Albuquerque Center
14:44 35.1314 -106.9200 134° Southeast 306 352 9,200 -600 Descending Albuquerque Center
14:44 35.1056 -106.8875 134° Southeast 261 300 9,000 -240 Descending Albuquerque Center
14:45 35.0800 -106.8556 134° Southeast 279 321 9,000 -300 Level Albuquerque Center
14:45 35.0656 -106.8278 122° Southeast 229 264 8,700 -1,020 Descending Albuquerque Center
14:46 35.0553 -106.7858 107° East 239 275 8,000 -1,200 Descending Albuquerque Center
14:46 35.0481 -106.7519 105° East 204 235 7,500 -1,020 Descending Albuquerque Center
14:47 35.0450 -106.7211 97° East 213 245 7,000 -1,020 Descending Albuquerque Center
14:47 35.0442 -106.6933 92° East 161 185 6,500 -900 Descending Albuquerque Center
14:48 35.0447 -106.6664 89° East 180 207 6,100 -840 Descending Albuquerque Center
14:48 35.0436 -106.6414 93° East 143 165 5,700 -840 Descending Albuquerque Center
14:49 35.0444 -106.6172 88° East 160 184 5,300 -720 Descending Albuquerque Center
14:51 35.0402 -106.6092 90° East  Level Estimated